Alton, Kansas
Current Conditions -  °F | °C
As of 1:53 AM on Friday 24 Oct 2014 (Local Time) from KRSL Reporting Station
Clear Clear  
Wind Chill: 60°   Ceiling: Unl
Heat Index: 60°   Visibility: 7mi
Dew Point: 57°   Wind: 14mph
Humidity: 90%   Direction: 190°S
Pressure: 30.03"   Gusts: NA
Location:  39.47°N, 98.95°W
Report Text: KRSL 240653Z AUTO 19012KT 7SM CLR 16/14 A3003 RMK AO2 SLP157 T01560139
Loading
Personal Weather Stations






























Interactive Weather Map
Tropical Storm Tracking
New forecast layout! Learn more

10-Day Weather Forecast

Advertisements
Track Severe Weather on mobile